sensor_id;sensor_type;location;lat;lon;timestamp;noise_LAeq;noise_LA_min;noise_LA_max;noise_LA01;noise_LA95
45964;Laerm;31671;48.092;11.842;2023-09-30T00:00:44;29.22;27.58;37.69;;
45964;Laerm;31671;48.092;11.842;2023-09-30T00:03:09;29.13;27.80;30.32;;
45964;Laerm;31671;48.092;11.842;2023-09-30T00:05:35;29.11;27.39;30.33;;
45964;Laerm;31671;48.092;11.842;2023-09-30T00:08:01;29.22;27.86;41.51;;
45964;Laerm;31671;48.092;11.842;2023-09-30T00:10:26;29.58;27.70;46.61;;
45964;Laerm;31671;48.092;11.842;2023-09-30T00:12:52;29.16;27.87;31.79;;
45964;Laerm;31671;48.092;11.842;2023-09-30T00:15:18;29.33;27.91;44.69;;
45964;Laerm;31671;48.092;11.842;2023-09-30T00:17:44;29.38;27.89;32.12;;
45964;Laerm;31671;48.092;11.842;2023-09-30T00:20:09;29.47;28.12;32.10;;
45964;Laerm;31671;48.092;11.842;2023-09-30T00:22:35;29.27;27.41;37.40;;
45964;Laerm;31671;48.092;11.842;2023-09-30T00:25:01;29.21;27.86;30.53;;
45964;Laerm;31671;48.092;11.842;2023-09-30T00:27:26;29.21;27.80;30.42;;
45964;Laerm;31671;48.092;11.842;2023-09-30T00:29:53;29.22;27.89;30.44;;
45964;Laerm;31671;48.092;11.842;2023-09-30T00:32:19;29.51;28.09;46.49;;
45964;Laerm;31671;48.092;11.842;2023-09-30T00:34:44;29.23;27.95;32.62;;
45964;Laerm;31671;48.092;11.842;2023-09-30T00:37:10;29.21;27.89;30.57;;
45964;Laerm;31671;48.092;11.842;2023-09-30T00:39:36;29.21;27.89;30.46;;
45964;Laerm;31671;48.092;11.842;2023-09-30T00:42:01;29.66;28.04;34.02;;
45964;Laerm;31671;48.092;11.842;2023-09-30T00:44:27;29.22;27.59;30.93;;
45964;Laerm;31671;48.092;11.842;2023-09-30T00:46:53;29.26;27.84;33.13;;
45964;Laerm;31671;48.092;11.842;2023-09-30T00:49:19;29.28;28.08;37.41;;
45964;Laerm;31671;48.092;11.842;2023-09-30T00:51:45;29.26;27.95;30.57;;
45964;Laerm;31671;48.092;11.842;2023-09-30T00:54:11;29.20;27.90;30.34;;
45964;Laerm;31671;48.092;11.842;2023-09-30T00:56:39;29.24;28.01;31.52;;
45964;Laerm;31671;48.092;11.842;2023-09-30T00:59:08;29.22;27.97;30.41;;
45964;Laerm;31671;48.092;11.842;2023-09-30T01:01:34;29.23;27.80;30.38;;
45964;Laerm;31671;48.092;11.842;2023-09-30T01:04:01;29.30;27.90;30.79;;
45964;Laerm;31671;48.092;11.842;2023-09-30T01:06:26;29.20;27.88;30.27;;
45964;Laerm;31671;48.092;11.842;2023-09-30T01:08:53;29.16;27.73;30.39;;
45964;Laerm;31671;48.092;11.842;2023-09-30T01:11:18;29.39;28.00;32.42;;
45964;Laerm;31671;48.092;11.842;2023-09-30T01:13:44;29.37;27.83;31.87;;
45964;Laerm;31671;48.092;11.842;2023-09-30T01:16:10;29.15;27.80;30.69;;
45964;Laerm;31671;48.092;11.842;2023-09-30T01:18:36;29.13;27.86;30.20;;
45964;Laerm;31671;48.092;11.842;2023-09-30T01:21:03;29.12;27.65;30.29;;
45964;Laerm;31671;48.092;11.842;2023-09-30T01:23:32;29.15;27.96;30.26;;
45964;Laerm;31671;48.092;11.842;2023-09-30T01:26:01;29.39;27.79;31.18;;
45964;Laerm;31671;48.092;11.842;2023-09-30T01:28:26;29.10;27.83;30.47;;
45964;Laerm;31671;48.092;11.842;2023-09-30T01:30:52;29.14;27.84;30.34;;
45964;Laerm;31671;48.092;11.842;2023-09-30T01:33:18;29.19;27.92;30.56;;
45964;Laerm;31671;48.092;11.842;2023-09-30T01:35:43;29.50;27.99;31.63;;
45964;Laerm;31671;48.092;11.842;2023-09-30T01:38:09;29.16;27.98;30.74;;
45964;Laerm;31671;48.092;11.842;2023-09-30T01:40:35;29.15;27.85;30.85;;
45964;Laerm;31671;48.092;11.842;2023-09-30T01:43:00;29.28;27.93;30.94;;
45964;Laerm;31671;48.092;11.842;2023-09-30T01:45:26;29.13;27.80;30.38;;
45964;Laerm;31671;48.092;11.842;2023-09-30T01:47:52;29.12;27.67;30.38;;
45964;Laerm;31671;48.092;11.842;2023-09-30T01:50:18;29.08;27.76;30.36;;
45964;Laerm;31671;48.092;11.842;2023-09-30T01:52:44;29.23;27.76;32.42;;
45964;Laerm;31671;48.092;11.842;2023-09-30T01:55:10;29.08;27.90;30.92;;
45964;Laerm;31671;48.092;11.842;2023-09-30T01:57:35;29.24;27.57;33.74;;
45964;Laerm;31671;48.092;11.842;2023-09-30T02:00:01;29.05;27.86;30.41;;
45964;Laerm;31671;48.092;11.842;2023-09-30T02:02:27;29.27;27.67;31.92;;
45964;Laerm;31671;48.092;11.842;2023-09-30T02:04:52;29.07;27.66;30.38;;
45964;Laerm;31671;48.092;11.842;2023-09-30T02:07:18;29.07;27.56;32.28;;
45964;Laerm;31671;48.092;11.842;2023-09-30T02:09:44;29.07;27.89;31.08;;
45964;Laerm;31671;48.092;11.842;2023-09-30T02:12:09;29.30;27.94;31.87;;
45964;Laerm;31671;48.092;11.842;2023-09-30T02:14:35;29.09;27.48;31.77;;
45964;Laerm;31671;48.092;11.842;2023-09-30T02:17:01;29.08;27.88;31.57;;
45964;Laerm;31671;48.092;11.842;2023-09-30T02:19:27;29.05;27.75;31.26;;
45964;Laerm;31671;48.092;11.842;2023-09-30T02:21:56;29.06;27.60;32.32;;
45964;Laerm;31671;48.092;11.842;2023-09-30T02:24:22;29.48;27.67;33.33;;
45964;Laerm;31671;48.092;11.842;2023-09-30T02:26:48;29.06;27.62;32.04;;
45964;Laerm;31671;48.092;11.842;2023-09-30T02:29:13;29.08;27.83;32.22;;
45964;Laerm;31671;48.092;11.842;2023-09-30T02:31:39;29.11;27.81;32.37;;
45964;Laerm;31671;48.092;11.842;2023-09-30T02:34:05;29.37;27.95;34.79;;
45964;Laerm;31671;48.092;11.842;2023-09-30T02:36:32;29.04;27.54;34.50;;
45964;Laerm;31671;48.092;11.842;2023-09-30T02:38:58;29.04;27.67;30.49;;
45964;Laerm;31671;48.092;11.842;2023-09-30T02:41:23;29.07;27.81;30.55;;
45964;Laerm;31671;48.092;11.842;2023-09-30T02:43:49;29.05;27.71;30.41;;
45964;Laerm;31671;48.092;11.842;2023-09-30T02:46:15;29.08;27.77;32.44;;
45964;Laerm;31671;48.092;11.842;2023-09-30T02:48:41;29.09;27.86;30.78;;
45964;Laerm;31671;48.092;11.842;2023-09-30T02:51:10;29.19;27.83;31.73;;
45964;Laerm;31671;48.092;11.842;2023-09-30T02:53:36;29.16;27.81;34.29;;
45964;Laerm;31671;48.092;11.842;2023-09-30T02:56:02;29.02;27.73;30.49;;
45964;Laerm;31671;48.092;11.842;2023-09-30T02:58:27;29.41;27.76;33.09;;
45964;Laerm;31671;48.092;11.842;2023-09-30T03:00:53;29.11;27.80;31.47;;
45964;Laerm;31671;48.092;11.842;2023-09-30T03:03:19;29.62;27.80;34.13;;
45964;Laerm;31671;48.092;11.842;2023-09-30T03:05:44;29.18;27.71;32.35;;
45964;Laerm;31671;48.092;11.842;2023-09-30T03:08:10;29.18;27.75;37.56;;
45964;Laerm;31671;48.092;11.842;2023-09-30T03:10:36;29.33;27.81;33.50;;
45964;Laerm;31671;48.092;11.842;2023-09-30T03:13:02;29.03;27.84;30.26;;
45964;Laerm;31671;48.092;11.842;2023-09-30T03:15:28;29.04;27.85;30.19;;
45964;Laerm;31671;48.092;11.842;2023-09-30T03:17:53;29.06;27.77;30.17;;
45964;Laerm;31671;48.092;11.842;2023-09-30T03:20:19;29.06;27.56;30.36;;
45964;Laerm;31671;48.092;11.842;2023-09-30T03:22:45;29.03;27.54;30.20;;
45964;Laerm;31671;48.092;11.842;2023-09-30T03:25:11;29.14;27.93;30.94;;
45964;Laerm;31671;48.092;11.842;2023-09-30T03:27:37;29.05;27.49;32.87;;
45964;Laerm;31671;48.092;11.842;2023-09-30T03:30:02;29.08;27.74;30.93;;
45964;Laerm;31671;48.092;11.842;2023-09-30T03:32:29;29.10;27.83;30.32;;
45964;Laerm;31671;48.092;11.842;2023-09-30T03:34:56;29.08;27.83;30.71;;
45964;Laerm;31671;48.092;11.842;2023-09-30T03:37:21;29.09;27.69;32.33;;
45964;Laerm;31671;48.092;11.842;2023-09-30T03:39:47;29.10;27.82;31.75;;
45964;Laerm;31671;48.092;11.842;2023-09-30T03:42:13;29.11;27.87;30.58;;
45964;Laerm;31671;48.092;11.842;2023-09-30T03:44:38;29.08;27.69;30.82;;
45964;Laerm;31671;48.092;11.842;2023-09-30T03:47:04;29.23;27.87;32.01;;
45964;Laerm;31671;48.092;11.842;2023-09-30T03:49:30;29.08;27.93;30.87;;
45964;Laerm;31671;48.092;11.842;2023-09-30T03:51:55;29.09;27.88;30.71;;
45964;Laerm;31671;48.092;11.842;2023-09-30T03:54:21;29.09;27.66;30.76;;
45964;Laerm;31671;48.092;11.842;2023-09-30T03:56:47;29.04;27.77;30.91;;
45964;Laerm;31671;48.092;11.842;2023-09-30T03:59:12;29.05;27.66;33.06;;
45964;Laerm;31671;48.092;11.842;2023-09-30T04:01:38;29.06;27.81;30.97;;
45964;Laerm;31671;48.092;11.842;2023-09-30T04:04:04;29.33;27.65;38.94;;
45964;Laerm;31671;48.092;11.842;2023-09-30T04:06:30;29.16;27.96;34.01;;
45964;Laerm;31671;48.092;11.842;2023-09-30T04:08:55;29.26;27.76;32.77;;
45964;Laerm;31671;48.092;11.842;2023-09-30T04:11:21;29.95;27.86;35.38;;
45964;Laerm;31671;48.092;11.842;2023-09-30T04:13:47;29.11;27.65;31.59;;
45964;Laerm;31671;48.092;11.842;2023-09-30T04:16:12;29.11;27.69;35.64;;
45964;Laerm;31671;48.092;11.842;2023-09-30T04:18:38;29.34;27.94;32.92;;
45964;Laerm;31671;48.092;11.842;2023-09-30T04:21:04;29.48;27.55;33.85;;
45964;Laerm;31671;48.092;11.842;2023-09-30T04:23:29;29.31;27.85;32.03;;
45964;Laerm;31671;48.092;11.842;2023-09-30T04:25:55;29.11;27.75;32.50;;
45964;Laerm;31671;48.092;11.842;2023-09-30T04:28:21;29.44;27.85;32.92;;
45964;Laerm;31671;48.092;11.842;2023-09-30T04:30:47;29.10;27.78;33.42;;
45964;Laerm;31671;48.092;11.842;2023-09-30T04:33:13;29.21;27.66;31.59;;
45964;Laerm;31671;48.092;11.842;2023-09-30T04:35:38;29.86;27.79;35.75;;
45964;Laerm;31671;48.092;11.842;2023-09-30T04:38:04;29.12;27.79;31.82;;
45964;Laerm;31671;48.092;11.842;2023-09-30T04:40:30;29.08;27.52;30.78;;
45964;Laerm;31671;48.092;11.842;2023-09-30T04:42:56;29.36;27.79;33.03;;
45964;Laerm;31671;48.092;11.842;2023-09-30T04:45:21;29.16;27.77;37.23;;
45964;Laerm;31671;48.092;11.842;2023-09-30T04:47:47;29.07;27.40;37.47;;
45964;Laerm;31671;48.092;11.842;2023-09-30T04:50:13;29.14;27.60;30.95;;
45964;Laerm;31671;48.092;11.842;2023-09-30T04:52:39;29.08;27.65;34.89;;
45964;Laerm;31671;48.092;11.842;2023-09-30T04:55:04;29.08;27.67;33.90;;
45964;Laerm;31671;48.092;11.842;2023-09-30T04:57:30;29.05;27.64;34.76;;
45964;Laerm;31671;48.092;11.842;2023-09-30T04:59:56;29.13;27.73;32.75;;
45964;Laerm;31671;48.092;11.842;2023-09-30T05:02:22;29.61;27.72;35.38;;
45964;Laerm;31671;48.092;11.842;2023-09-30T05:04:48;29.10;27.70;31.83;;
45964;Laerm;31671;48.092;11.842;2023-09-30T05:07:14;29.40;27.81;40.12;;
45964;Laerm;31671;48.092;11.842;2023-09-30T05:09:40;29.11;27.63;32.56;;
45964;Laerm;31671;48.092;11.842;2023-09-30T05:12:05;29.23;27.80;33.61;;
45964;Laerm;31671;48.092;11.842;2023-09-30T05:14:31;29.23;27.73;35.55;;
45964;Laerm;31671;48.092;11.842;2023-09-30T05:16:57;29.23;27.64;36.58;;
45964;Laerm;31671;48.092;11.842;2023-09-30T05:19:22;29.22;27.92;35.70;;
45964;Laerm;31671;48.092;11.842;2023-09-30T05:21:48;29.11;27.54;38.75;;
45964;Laerm;31671;48.092;11.842;2023-09-30T05:24:14;29.35;27.64;39.75;;
45964;Laerm;31671;48.092;11.842;2023-09-30T05:26:40;29.22;27.79;33.37;;
45964;Laerm;31671;48.092;11.842;2023-09-30T05:29:05;29.77;27.89;38.76;;
45964;Laerm;31671;48.092;11.842;2023-09-30T05:31:31;29.22;27.78;36.18;;
45964;Laerm;31671;48.092;11.842;2023-09-30T05:33:57;29.34;28.03;37.80;;
45964;Laerm;31671;48.092;11.842;2023-09-30T05:36:22;29.66;27.64;35.43;;
45964;Laerm;31671;48.092;11.842;2023-09-30T05:38:48;29.31;27.77;37.90;;
45964;Laerm;31671;48.092;11.842;2023-09-30T05:41:14;29.81;27.74;39.84;;
45964;Laerm;31671;48.092;11.842;2023-09-30T05:43:40;29.37;27.63;36.51;;
45964;Laerm;31671;48.092;11.842;2023-09-30T05:46:06;29.29;27.60;38.37;;
45964;Laerm;31671;48.092;11.842;2023-09-30T05:48:31;29.29;27.75;34.70;;
45964;Laerm;31671;48.092;11.842;2023-09-30T05:50:57;29.39;27.41;35.07;;
45964;Laerm;31671;48.092;11.842;2023-09-30T05:53:23;29.31;27.77;36.12;;
45964;Laerm;31671;48.092;11.842;2023-09-30T05:55:48;29.13;27.73;32.32;;
45964;Laerm;31671;48.092;11.842;2023-09-30T05:58:14;29.28;27.69;35.60;;
45964;Laerm;31671;48.092;11.842;2023-09-30T06:00:40;29.24;27.88;32.64;;
45964;Laerm;31671;48.092;11.842;2023-09-30T06:03:06;29.49;27.78;38.76;;
45964;Laerm;31671;48.092;11.842;2023-09-30T06:05:31;29.24;27.86;39.83;;
45964;Laerm;31671;48.092;11.842;2023-09-30T06:07:58;29.30;27.89;38.60;;
45964;Laerm;31671;48.092;11.842;2023-09-30T06:10:24;29.67;28.17;40.04;;
45964;Laerm;31671;48.092;11.842;2023-09-30T06:12:51;29.50;28.09;36.74;;
45964;Laerm;31671;48.092;11.842;2023-09-30T06:15:17;29.47;28.26;32.76;;
45964;Laerm;31671;48.092;11.842;2023-09-30T06:17:42;29.55;28.05;33.27;;
45964;Laerm;31671;48.092;11.842;2023-09-30T06:20:08;29.44;27.84;33.98;;
45964;Laerm;31671;48.092;11.842;2023-09-30T06:22:34;29.52;27.87;32.06;;
45964;Laerm;31671;48.092;11.842;2023-09-30T06:25:00;29.29;27.98;30.82;;
45964;Laerm;31671;48.092;11.842;2023-09-30T06:27:25;29.37;28.00;34.46;;
45964;Laerm;31671;48.092;11.842;2023-09-30T06:29:51;29.43;27.67;34.70;;
45964;Laerm;31671;48.092;11.842;2023-09-30T06:32:17;29.34;27.75;30.94;;
45964;Laerm;31671;48.092;11.842;2023-09-30T06:34:42;29.42;27.82;32.62;;
45964;Laerm;31671;48.092;11.842;2023-09-30T06:37:08;29.24;27.83;30.82;;
45964;Laerm;31671;48.092;11.842;2023-09-30T06:39:34;29.40;28.06;35.69;;
45964;Laerm;31671;48.092;11.842;2023-09-30T06:41:59;29.50;28.03;31.79;;
45964;Laerm;31671;48.092;11.842;2023-09-30T06:44:25;29.55;28.07;32.92;;
45964;Laerm;31671;48.092;11.842;2023-09-30T06:46:51;29.34;27.74;32.81;;
45964;Laerm;31671;48.092;11.842;2023-09-30T06:49:16;29.41;28.04;32.91;;
45964;Laerm;31671;48.092;11.842;2023-09-30T06:51:42;29.58;27.98;32.90;;
45964;Laerm;31671;48.092;11.842;2023-09-30T06:54:08;29.57;28.03;33.45;;
45964;Laerm;31671;48.092;11.842;2023-09-30T06:56:33;29.36;27.91;31.66;;
45964;Laerm;31671;48.092;11.842;2023-09-30T06:58:59;29.38;28.16;34.63;;
45964;Laerm;31671;48.092;11.842;2023-09-30T07:01:26;29.38;28.01;37.89;;
45964;Laerm;31671;48.092;11.842;2023-09-30T07:03:52;29.41;28.00;38.29;;
45964;Laerm;31671;48.092;11.842;2023-09-30T07:06:23;29.36;28.08;30.55;;
45964;Laerm;31671;48.092;11.842;2023-09-30T07:08:49;29.68;28.00;38.05;;
45964;Laerm;31671;48.092;11.842;2023-09-30T07:11:15;29.36;28.15;31.48;;
45964;Laerm;31671;48.092;11.842;2023-09-30T07:13:40;29.57;28.06;38.94;;
45964;Laerm;31671;48.092;11.842;2023-09-30T07:16:06;29.50;28.05;37.63;;
45964;Laerm;31671;48.092;11.842;2023-09-30T07:18:32;29.52;28.12;37.90;;
45964;Laerm;31671;48.092;11.842;2023-09-30T07:20:57;29.81;28.21;44.22;;
45964;Laerm;31671;48.092;11.842;2023-09-30T07:23:23;29.81;28.22;33.08;;
45964;Laerm;31671;48.092;11.842;2023-09-30T07:25:49;29.51;28.08;31.34;;
45964;Laerm;31671;48.092;11.842;2023-09-30T07:28:14;29.59;28.11;36.39;;
45964;Laerm;31671;48.092;11.842;2023-09-30T07:30:40;30.15;28.36;37.07;;
45964;Laerm;31671;48.092;11.842;2023-09-30T07:33:06;29.79;28.39;34.69;;
45964;Laerm;31671;48.092;11.842;2023-09-30T07:35:32;29.82;28.33;31.80;;
45964;Laerm;31671;48.092;11.842;2023-09-30T07:37:58;29.98;28.48;39.78;;
45964;Laerm;31671;48.092;11.842;2023-09-30T07:40:23;29.85;28.30;38.54;;
45964;Laerm;31671;48.092;11.842;2023-09-30T07:42:49;29.84;28.42;37.30;;
45964;Laerm;31671;48.092;11.842;2023-09-30T07:45:15;29.90;28.72;37.66;;
45964;Laerm;31671;48.092;11.842;2023-09-30T07:47:40;29.94;28.69;39.21;;
45964;Laerm;31671;48.092;11.842;2023-09-30T07:50:06;29.96;28.36;36.29;;
45964;Laerm;31671;48.092;11.842;2023-09-30T07:52:32;29.92;28.63;34.20;;
45964;Laerm;31671;48.092;11.842;2023-09-30T07:54:57;30.03;28.51;44.52;;
45964;Laerm;31671;48.092;11.842;2023-09-30T07:57:23;29.85;28.58;44.26;;
45964;Laerm;31671;48.092;11.842;2023-09-30T07:59:49;29.81;28.57;35.84;;
45964;Laerm;31671;48.092;11.842;2023-09-30T08:02:14;29.81;28.42;34.51;;
45964;Laerm;31671;48.092;11.842;2023-09-30T08:04:40;29.77;28.32;35.34;;
45964;Laerm;31671;48.092;11.842;2023-09-30T08:07:06;30.06;28.53;36.40;;
45964;Laerm;31671;48.092;11.842;2023-09-30T08:09:31;29.84;28.34;37.57;;
45964;Laerm;31671;48.092;11.842;2023-09-30T08:11:57;29.70;28.27;36.84;;
45964;Laerm;31671;48.092;11.842;2023-09-30T08:14:23;29.66;28.26;32.90;;
45964;Laerm;31671;48.092;11.842;2023-09-30T08:16:48;29.62;28.28;31.51;;
45964;Laerm;31671;48.092;11.842;2023-09-30T08:19:14;29.65;28.03;32.10;;
45964;Laerm;31671;48.092;11.842;2023-09-30T08:21:40;29.72;28.22;32.58;;
45964;Laerm;31671;48.092;11.842;2023-09-30T08:24:06;29.79;28.30;38.94;;
45964;Laerm;31671;48.092;11.842;2023-09-30T08:26:31;29.81;28.41;37.58;;
45964;Laerm;31671;48.092;11.842;2023-09-30T08:28:57;29.88;28.06;42.67;;
45964;Laerm;31671;48.092;11.842;2023-09-30T08:31:23;30.07;28.53;41.81;;
45964;Laerm;31671;48.092;11.842;2023-09-30T08:33:48;29.95;28.70;36.93;;
45964;Laerm;31671;48.092;11.842;2023-09-30T08:36:14;29.95;28.46;35.84;;
45964;Laerm;31671;48.092;11.842;2023-09-30T08:38:41;29.95;28.61;44.15;;
45964;Laerm;31671;48.092;11.842;2023-09-30T08:41:06;29.97;28.68;35.51;;
45964;Laerm;31671;48.092;11.842;2023-09-30T08:43:39;29.95;28.55;38.76;;
45964;Laerm;31671;48.092;11.842;2023-09-30T08:46:05;29.99;28.56;40.77;;
45964;Laerm;31671;48.092;11.842;2023-09-30T08:48:34;30.07;28.59;41.78;;
45964;Laerm;31671;48.092;11.842;2023-09-30T08:51:00;30.09;28.75;36.63;;
45964;Laerm;31671;48.092;11.842;2023-09-30T08:53:26;30.19;28.50;32.24;;
45964;Laerm;31671;48.092;11.842;2023-09-30T08:55:54;30.00;28.82;31.44;;
45964;Laerm;31671;48.092;11.842;2023-09-30T08:58:23;30.08;28.60;33.15;;
45964;Laerm;31671;48.092;11.842;2023-09-30T09:00:49;29.99;28.54;34.75;;
45964;Laerm;31671;48.092;11.842;2023-09-30T09:03:15;29.86;28.52;33.23;;
45964;Laerm;31671;48.092;11.842;2023-09-30T09:05:41;29.93;28.60;41.27;;
45964;Laerm;31671;48.092;11.842;2023-09-30T09:08:06;29.88;28.58;41.87;;
45964;Laerm;31671;48.092;11.842;2023-09-30T09:10:32;29.98;28.52;35.26;;
45964;Laerm;31671;48.092;11.842;2023-09-30T09:12:58;30.13;28.65;36.90;;
45964;Laerm;31671;48.092;11.842;2023-09-30T09:15:25;30.36;28.78;33.61;;
45964;Laerm;31671;48.092;11.842;2023-09-30T09:17:51;30.04;28.54;44.12;;
45964;Laerm;31671;48.092;11.842;2023-09-30T09:20:17;29.99;28.71;37.54;;
45964;Laerm;31671;48.092;11.842;2023-09-30T09:22:44;29.99;28.40;35.76;;
45964;Laerm;31671;48.092;11.842;2023-09-30T09:25:10;29.82;28.44;33.76;;
45964;Laerm;31671;48.092;11.842;2023-09-30T09:27:36;29.93;28.38;35.29;;
45964;Laerm;31671;48.092;11.842;2023-09-30T09:30:14;30.31;28.33;37.14;;
45964;Laerm;31671;48.092;11.842;2023-09-30T09:32:51;29.68;28.34;34.96;;
45964;Laerm;31671;48.092;11.842;2023-09-30T09:35:19;29.66;28.22;37.94;;
45964;Laerm;31671;48.092;11.842;2023-09-30T09:37:53;29.44;28.11;37.18;;
45964;Laerm;31671;48.092;11.842;2023-09-30T09:40:22;29.53;27.94;34.89;;
45964;Laerm;31671;48.092;11.842;2023-09-30T09:42:48;29.72;28.26;34.91;;
45964;Laerm;31671;48.092;11.842;2023-09-30T09:45:15;30.01;28.44;33.95;;
45964;Laerm;31671;48.092;11.842;2023-09-30T09:47:40;29.64;27.96;34.82;;
45964;Laerm;31671;48.092;11.842;2023-09-30T09:50:06;29.58;28.12;35.46;;
45964;Laerm;31671;48.092;11.842;2023-09-30T09:52:33;29.85;28.33;44.05;;
45964;Laerm;31671;48.092;11.842;2023-09-30T09:54:59;29.88;28.43;43.95;;
45964;Laerm;31671;48.092;11.842;2023-09-30T09:57:26;29.89;28.32;36.16;;
45964;Laerm;31671;48.092;11.842;2023-09-30T09:59:53;29.83;28.33;45.60;;
45964;Laerm;31671;48.092;11.842;2023-09-30T10:02:19;30.10;28.26;37.59;;
45964;Laerm;31671;48.092;11.842;2023-09-30T10:04:45;29.84;28.44;36.57;;
45964;Laerm;31671;48.092;11.842;2023-09-30T10:07:16;29.69;28.32;37.12;;
45964;Laerm;31671;48.092;11.842;2023-09-30T10:09:46;29.62;28.31;37.42;;
45964;Laerm;31671;48.092;11.842;2023-09-30T10:12:13;29.68;28.35;45.42;;
45964;Laerm;31671;48.092;11.842;2023-09-30T10:14:39;29.71;28.30;36.70;;
45964;Laerm;31671;48.092;11.842;2023-09-30T10:17:05;29.50;28.10;36.86;;
45964;Laerm;31671;48.092;11.842;2023-09-30T10:19:31;29.41;27.89;37.48;;
45964;Laerm;31671;48.092;11.842;2023-09-30T10:24:40;29.26;27.84;37.47;;
45964;Laerm;31671;48.092;11.842;2023-09-30T10:29:47;29.57;27.84;37.64;;
45964;Laerm;31671;48.092;11.842;2023-09-30T10:32:13;29.35;28.07;34.49;;
45964;Laerm;31671;48.092;11.842;2023-09-30T10:34:39;30.96;28.06;46.28;;
45964;Laerm;31671;48.092;11.842;2023-09-30T10:37:22;29.48;27.84;44.44;;
45964;Laerm;31671;48.092;11.842;2023-09-30T10:45:04;29.19;27.74;36.40;;
45964;Laerm;31671;48.092;11.842;2023-09-30T10:49:58;30.16;27.94;51.75;;
45964;Laerm;31671;48.092;11.842;2023-09-30T10:52:23;30.53;27.88;49.91;;
45964;Laerm;31671;48.092;11.842;2023-09-30T10:54:49;30.36;27.72;48.21;;
45964;Laerm;31671;48.092;11.842;2023-09-30T10:57:25;31.71;27.87;50.88;;
45964;Laerm;31671;48.092;11.842;2023-09-30T11:00:06;29.79;27.80;49.04;;
45964;Laerm;31671;48.092;11.842;2023-09-30T11:02:32;29.33;27.94;43.61;;
45964;Laerm;31671;48.092;11.842;2023-09-30T11:04:57;29.42;28.00;40.03;;
45964;Laerm;31671;48.092;11.842;2023-09-30T11:07:33;29.54;28.02;46.78;;
45964;Laerm;31671;48.092;11.842;2023-09-30T11:10:00;29.48;28.02;38.92;;
45964;Laerm;31671;48.092;11.842;2023-09-30T11:12:26;29.81;27.95;51.31;;
45964;Laerm;31671;48.092;11.842;2023-09-30T11:14:58;29.60;27.80;37.18;;
45964;Laerm;31671;48.092;11.842;2023-09-30T11:17:24;29.55;27.88;38.11;;
45964;Laerm;31671;48.092;11.842;2023-09-30T11:19:50;29.35;28.03;38.20;;
45964;Laerm;31671;48.092;11.842;2023-09-30T11:22:15;29.77;27.92;38.44;;
45964;Laerm;31671;48.092;11.842;2023-09-30T11:24:41;29.23;27.54;37.37;;
45964;Laerm;31671;48.092;11.842;2023-09-30T11:27:07;29.10;27.95;31.68;;
45964;Laerm;31671;48.092;11.842;2023-09-30T11:29:32;29.39;27.67;38.59;;
45964;Laerm;31671;48.092;11.842;2023-09-30T11:31:58;29.05;27.66;33.46;;
45964;Laerm;31671;48.092;11.842;2023-09-30T11:34:33;29.04;27.76;34.86;;
45964;Laerm;31671;48.092;11.842;2023-09-30T11:37:00;29.04;27.70;37.63;;
45964;Laerm;31671;48.092;11.842;2023-09-30T11:39:27;29.14;27.60;38.37;;
45964;Laerm;31671;48.092;11.842;2023-09-30T11:41:53;29.07;27.52;34.51;;
45964;Laerm;31671;48.092;11.842;2023-09-30T11:44:19;29.60;27.75;46.59;;
45964;Laerm;31671;48.092;11.842;2023-09-30T11:46:48;29.03;27.76;33.84;;
45964;Laerm;31671;48.092;11.842;2023-09-30T11:49:23;29.08;27.68;34.07;;
45964;Laerm;31671;48.092;11.842;2023-09-30T11:51:49;29.29;27.96;35.26;;
45964;Laerm;31671;48.092;11.842;2023-09-30T11:54:14;29.27;27.70;40.03;;
45964;Laerm;31671;48.092;11.842;2023-09-30T11:56:40;29.36;27.92;43.44;;
45964;Laerm;31671;48.092;11.842;2023-09-30T11:59:06;29.23;27.69;36.87;;
45964;Laerm;31671;48.092;11.842;2023-09-30T12:01:31;29.21;27.66;36.65;;
45964;Laerm;31671;48.092;11.842;2023-09-30T12:03:57;29.11;27.63;34.46;;
45964;Laerm;31671;48.092;11.842;2023-09-30T12:06:23;29.18;27.81;34.47;;
45964;Laerm;31671;48.092;11.842;2023-09-30T12:08:49;30.49;27.77;45.42;;
45964;Laerm;31671;48.092;11.842;2023-09-30T12:11:15;31.65;28.20;41.73;;
45964;Laerm;31671;48.092;11.842;2023-09-30T12:13:40;29.79;27.99;40.23;;
45964;Laerm;31671;48.092;11.842;2023-09-30T12:16:06;29.60;27.75;35.73;;
45964;Laerm;31671;48.092;11.842;2023-09-30T12:18:32;29.67;28.25;36.26;;
45964;Laerm;31671;48.092;11.842;2023-09-30T12:20:57;29.71;28.16;41.08;;
45964;Laerm;31671;48.092;11.842;2023-09-30T12:23:23;30.13;28.28;40.49;;
45964;Laerm;31671;48.092;11.842;2023-09-30T12:25:49;30.15;28.17;40.83;;
45964;Laerm;31671;48.092;11.842;2023-09-30T12:28:14;30.24;28.33;44.27;;
45964;Laerm;31671;48.092;11.842;2023-09-30T12:30:40;29.88;28.15;38.02;;
45964;Laerm;31671;48.092;11.842;2023-09-30T12:33:07;29.48;27.98;37.67;;
45964;Laerm;31671;48.092;11.842;2023-09-30T12:35:32;29.67;27.71;42.68;;
45964;Laerm;31671;48.092;11.842;2023-09-30T12:37:58;29.96;28.04;45.99;;
45964;Laerm;31671;48.092;11.842;2023-09-30T12:40:24;31.01;28.04;45.66;;
45964;Laerm;31671;48.092;11.842;2023-09-30T12:42:50;31.86;27.96;50.88;;
45964;Laerm;31671;48.092;11.842;2023-09-30T12:45:16;33.19;27.98;54.83;;
45964;Laerm;31671;48.092;11.842;2023-09-30T12:47:42;34.96;27.88;56.49;;
45964;Laerm;31671;48.092;11.842;2023-09-30T12:50:08;31.22;27.90;54.58;;
45964;Laerm;31671;48.092;11.842;2023-09-30T12:52:33;29.15;27.65;36.95;;
45964;Laerm;31671;48.092;11.842;2023-09-30T12:54:59;29.87;27.73;45.60;;
45964;Laerm;31671;48.092;11.842;2023-09-30T12:57:25;29.52;27.66;37.99;;
45964;Laerm;31671;48.092;11.842;2023-09-30T12:59:50;29.72;27.70;43.32;;
45964;Laerm;31671;48.092;11.842;2023-09-30T13:02:16;29.71;27.51;47.29;;
45964;Laerm;31671;48.092;11.842;2023-09-30T13:04:42;29.94;28.11;36.81;;
45964;Laerm;31671;48.092;11.842;2023-09-30T13:07:07;29.46;27.64;36.40;;
45964;Laerm;31671;48.092;11.842;2023-09-30T13:09:33;30.04;28.11;39.71;;
45964;Laerm;31671;48.092;11.842;2023-09-30T13:11:59;29.96;27.98;38.45;;
45964;Laerm;31671;48.092;11.842;2023-09-30T13:14:24;30.69;28.17;40.19;;
45964;Laerm;31671;48.092;11.842;2023-09-30T13:16:50;29.96;28.17;44.49;;
45964;Laerm;31671;48.092;11.842;2023-09-30T13:19:16;30.21;28.05;37.97;;
45964;Laerm;31671;48.092;11.842;2023-09-30T13:21:41;29.91;28.22;41.52;;
45964;Laerm;31671;48.092;11.842;2023-09-30T13:24:07;31.39;27.97;46.73;;
45964;Laerm;31671;48.092;11.842;2023-09-30T13:26:33;30.82;28.09;50.98;;
45964;Laerm;31671;48.092;11.842;2023-09-30T13:28:58;30.62;28.22;43.36;;
45964;Laerm;31671;48.092;11.842;2023-09-30T13:31:24;30.06;28.12;39.76;;
45964;Laerm;31671;48.092;11.842;2023-09-30T13:33:50;32.06;28.14;47.17;;
45964;Laerm;31671;48.092;11.842;2023-09-30T13:36:15;32.07;28.33;50.43;;
45964;Laerm;31671;48.092;11.842;2023-09-30T13:38:41;31.54;28.31;51.78;;